aviador You're here:

LFST Decoded Metar

STRASSBOURG in FRANCE
Report Time2017-09-25 04:00:00
UTC Time2017-09-25 04:10:42
Flight Rules ifr IFR
Wind310° at 04 kt
W.Decomp.*RWY 23: 0.7 kt HW 3.9 kt RCW
W.Rank310° ranks 21
Current wind is below 310° avg. (5.8)
Visibility6000 m
Phenomena:Patches Fog
Clouds:Overcast 007 Hf
Ceiling700 ft
Temp09°C (ISA -5)
Dew Point09°C (100% RH)
AAT7.3°C
QNH1020 hPa
Density Alt-174 ft
Elevation505 ft
Report Wrong Elevation
Raw Report
METAR LFST 250400Z AUTO 31004KT 6000 OVC007 09/09 Q1020 TEMPO 1000
BCFG OVC003=

Extra information for LFST:More info

Metar Taf Metar & Taf Last 4 Metars F.Rules Stats Wind Profile Meteogram Temp Stats Airport Information Weather charts Add Link Nearby VenuesMetar ALERT Operation Metar Decoded Social comments